sensor_id;sensor_type;location;lat;lon;timestamp;P1;durP1;ratioP1;P2;durP2;ratioP2
69822;SDS011;57119;52.516;13.508;2023-10-09T00:00:10;4.93;;;1.60;;
69822;SDS011;57119;52.516;13.508;2023-10-09T00:02:55;5.95;;;1.55;;
69822;SDS011;57119;52.516;13.508;2023-10-09T00:05:23;4.45;;;1.45;;
69822;SDS011;57119;52.516;13.508;2023-10-09T00:08:02;5.57;;;1.88;;
69822;SDS011;57119;52.516;13.508;2023-10-09T00:10:28;5.07;;;1.60;;
69822;SDS011;57119;52.516;13.508;2023-10-09T00:13:00;4.90;;;1.98;;
69822;SDS011;57119;52.516;13.508;2023-10-09T00:15:26;4.97;;;1.90;;
69822;SDS011;57119;52.516;13.508;2023-10-09T00:17:52;5.90;;;1.95;;
69822;SDS011;57119;52.516;13.508;2023-10-09T00:20:21;5.65;;;2.10;;
69822;SDS011;57119;52.516;13.508;2023-10-09T00:22:50;4.68;;;1.60;;
69822;SDS011;57119;52.516;13.508;2023-10-09T00:25:16;5.95;;;2.00;;
69822;SDS011;57119;52.516;13.508;2023-10-09T00:27:54;5.60;;;1.67;;
69822;SDS011;57119;52.516;13.508;2023-10-09T00:30:20;5.75;;;2.03;;
69822;SDS011;57119;52.516;13.508;2023-10-09T00:32:54;5.18;;;1.77;;
69822;SDS011;57119;52.516;13.508;2023-10-09T00:35:29;6.53;;;1.77;;
69822;SDS011;57119;52.516;13.508;2023-10-09T00:38:01;6.63;;;1.53;;
69822;SDS011;57119;52.516;13.508;2023-10-09T00:40:48;6.05;;;1.95;;
69822;SDS011;57119;52.516;13.508;2023-10-09T00:43:22;5.25;;;1.80;;
69822;SDS011;57119;52.516;13.508;2023-10-09T00:45:54;5.93;;;1.90;;
69822;SDS011;57119;52.516;13.508;2023-10-09T00:48:19;5.40;;;2.00;;
69822;SDS011;57119;52.516;13.508;2023-10-09T00:50:56;7.75;;;1.80;;
69822;SDS011;57119;52.516;13.508;2023-10-09T00:53:25;8.10;;;2.17;;
69822;SDS011;57119;52.516;13.508;2023-10-09T00:55:56;6.07;;;1.65;;
69822;SDS011;57119;52.516;13.508;2023-10-09T00:58:23;6.63;;;1.70;;
69822;SDS011;57119;52.516;13.508;2023-10-09T01:00:56;4.75;;;1.80;;
69822;SDS011;57119;52.516;13.508;2023-10-09T01:03:24;5.22;;;1.70;;
69822;SDS011;57119;52.516;13.508;2023-10-09T01:05:56;6.07;;;2.17;;
69822;SDS011;57119;52.516;13.508;2023-10-09T01:08:33;5.65;;;2.08;;
69822;SDS011;57119;52.516;13.508;2023-10-09T01:11:05;7.87;;;2.00;;
69822;SDS011;57119;52.516;13.508;2023-10-09T01:13:35;6.93;;;2.33;;
69822;SDS011;57119;52.516;13.508;2023-10-09T01:16:07;6.10;;;2.05;;
69822;SDS011;57119;52.516;13.508;2023-10-09T01:18:40;6.20;;;2.05;;
69822;SDS011;57119;52.516;13.508;2023-10-09T01:21:08;6.38;;;2.00;;
69822;SDS011;57119;52.516;13.508;2023-10-09T01:23:43;5.60;;;1.83;;
69822;SDS011;57119;52.516;13.508;2023-10-09T01:26:30;7.38;;;2.08;;
69822;SDS011;57119;52.516;13.508;2023-10-09T01:29:18;7.75;;;2.05;;
69822;SDS011;57119;52.516;13.508;2023-10-09T01:34:31;7.30;;;2.13;;
69822;SDS011;57119;52.516;13.508;2023-10-09T01:37:06;5.90;;;1.60;;
69822;SDS011;57119;52.516;13.508;2023-10-09T01:39:44;6.72;;;1.60;;
69822;SDS011;57119;52.516;13.508;2023-10-09T01:42:10;4.97;;;1.60;;
69822;SDS011;57119;52.516;13.508;2023-10-09T01:44:36;5.57;;;1.87;;
69822;SDS011;57119;52.516;13.508;2023-10-09T01:47:08;5.50;;;2.03;;
69822;SDS011;57119;52.516;13.508;2023-10-09T01:49:34;7.28;;;2.08;;
69822;SDS011;57119;52.516;13.508;2023-10-09T01:52:02;6.97;;;2.00;;
69822;SDS011;57119;52.516;13.508;2023-10-09T01:54:37;7.27;;;1.90;;
69822;SDS011;57119;52.516;13.508;2023-10-09T01:57:07;5.45;;;1.95;;
69822;SDS011;57119;52.516;13.508;2023-10-09T01:59:37;7.20;;;1.98;;
69822;SDS011;57119;52.516;13.508;2023-10-09T02:02:08;6.47;;;2.05;;
69822;SDS011;57119;52.516;13.508;2023-10-09T02:04:39;7.10;;;2.05;;
69822;SDS011;57119;52.516;13.508;2023-10-09T02:07:07;6.70;;;2.03;;
69822;SDS011;57119;52.516;13.508;2023-10-09T02:09:34;6.28;;;2.13;;
69822;SDS011;57119;52.516;13.508;2023-10-09T02:12:00;6.10;;;2.58;;
69822;SDS011;57119;52.516;13.508;2023-10-09T02:14:26;5.40;;;2.00;;
69822;SDS011;57119;52.516;13.508;2023-10-09T02:16:52;6.10;;;1.88;;
69822;SDS011;57119;52.516;13.508;2023-10-09T02:19:42;6.50;;;2.00;;
69822;SDS011;57119;52.516;13.508;2023-10-09T02:22:13;6.63;;;2.42;;
69822;SDS011;57119;52.516;13.508;2023-10-09T02:24:39;9.65;;;2.78;;
69822;SDS011;57119;52.516;13.508;2023-10-09T02:27:18;5.65;;;2.28;;
69822;SDS011;57119;52.516;13.508;2023-10-09T02:30:03;5.43;;;2.17;;
69822;SDS011;57119;52.516;13.508;2023-10-09T02:32:40;8.40;;;2.33;;
69822;SDS011;57119;52.516;13.508;2023-10-09T02:35:07;7.30;;;2.20;;
69822;SDS011;57119;52.516;13.508;2023-10-09T02:37:46;6.85;;;2.20;;
69822;SDS011;57119;52.516;13.508;2023-10-09T02:40:11;6.20;;;2.40;;
69822;SDS011;57119;52.516;13.508;2023-10-09T02:42:47;6.38;;;2.25;;
69822;SDS011;57119;52.516;13.508;2023-10-09T02:45:14;6.70;;;2.55;;
69822;SDS011;57119;52.516;13.508;2023-10-09T02:47:41;8.07;;;2.40;;
69822;SDS011;57119;52.516;13.508;2023-10-09T02:50:08;7.60;;;2.50;;
69822;SDS011;57119;52.516;13.508;2023-10-09T02:52:47;7.53;;;2.72;;
69822;SDS011;57119;52.516;13.508;2023-10-09T02:55:17;7.80;;;2.58;;
69822;SDS011;57119;52.516;13.508;2023-10-09T02:57:52;6.78;;;2.72;;
69822;SDS011;57119;52.516;13.508;2023-10-09T03:00:30;8.25;;;2.70;;
69822;SDS011;57119;52.516;13.508;2023-10-09T03:02:57;6.43;;;2.47;;
69822;SDS011;57119;52.516;13.508;2023-10-09T03:05:23;7.00;;;2.45;;
69822;SDS011;57119;52.516;13.508;2023-10-09T03:07:53;8.55;;;2.53;;
69822;SDS011;57119;52.516;13.508;2023-10-09T03:10:19;7.22;;;3.03;;
69822;SDS011;57119;52.516;13.508;2023-10-09T03:12:46;8.57;;;3.20;;
69822;SDS011;57119;52.516;13.508;2023-10-09T03:15:16;9.03;;;2.83;;
69822;SDS011;57119;52.516;13.508;2023-10-09T03:17:43;6.95;;;3.25;;
69822;SDS011;57119;52.516;13.508;2023-10-09T03:20:10;7.10;;;2.97;;
69822;SDS011;57119;52.516;13.508;2023-10-09T03:22:39;9.35;;;3.05;;
69822;SDS011;57119;52.516;13.508;2023-10-09T03:25:05;7.95;;;3.05;;
69822;SDS011;57119;52.516;13.508;2023-10-09T03:27:36;9.23;;;3.13;;
69822;SDS011;57119;52.516;13.508;2023-10-09T03:30:03;8.23;;;3.17;;
69822;SDS011;57119;52.516;13.508;2023-10-09T03:32:30;6.78;;;3.03;;
69822;SDS011;57119;52.516;13.508;2023-10-09T03:34:55;7.67;;;3.07;;
69822;SDS011;57119;52.516;13.508;2023-10-09T03:37:21;9.23;;;3.13;;
69822;SDS011;57119;52.516;13.508;2023-10-09T03:39:59;9.93;;;3.40;;
69822;SDS011;57119;52.516;13.508;2023-10-09T03:42:25;8.60;;;2.80;;
69822;SDS011;57119;52.516;13.508;2023-10-09T03:44:50;9.45;;;3.17;;
69822;SDS011;57119;52.516;13.508;2023-10-09T03:47:18;8.03;;;3.23;;
69822;SDS011;57119;52.516;13.508;2023-10-09T03:49:48;7.93;;;3.47;;
69822;SDS011;57119;52.516;13.508;2023-10-09T03:52:16;8.05;;;3.22;;
69822;SDS011;57119;52.516;13.508;2023-10-09T03:54:43;7.68;;;3.30;;
69822;SDS011;57119;52.516;13.508;2023-10-09T03:57:11;7.75;;;3.38;;
69822;SDS011;57119;52.516;13.508;2023-10-09T03:59:40;8.07;;;3.73;;
69822;SDS011;57119;52.516;13.508;2023-10-09T04:02:07;7.88;;;3.50;;
69822;SDS011;57119;52.516;13.508;2023-10-09T04:04:33;7.40;;;3.30;;
69822;SDS011;57119;52.516;13.508;2023-10-09T04:06:58;8.20;;;2.97;;
69822;SDS011;57119;52.516;13.508;2023-10-09T04:09:24;8.97;;;3.00;;
69822;SDS011;57119;52.516;13.508;2023-10-09T04:11:50;6.83;;;3.10;;
69822;SDS011;57119;52.516;13.508;2023-10-09T04:14:42;8.03;;;3.47;;
69822;SDS011;57119;52.516;13.508;2023-10-09T04:17:20;7.78;;;3.08;;
69822;SDS011;57119;52.516;13.508;2023-10-09T04:19:59;8.50;;;3.28;;
69822;SDS011;57119;52.516;13.508;2023-10-09T04:22:43;9.00;;;3.42;;
69822;SDS011;57119;52.516;13.508;2023-10-09T04:25:29;7.97;;;3.17;;
69822;SDS011;57119;52.516;13.508;2023-10-09T04:28:05;7.37;;;3.00;;
69822;SDS011;57119;52.516;13.508;2023-10-09T04:30:41;8.70;;;2.97;;
69822;SDS011;57119;52.516;13.508;2023-10-09T04:33:11;6.47;;;2.70;;
69822;SDS011;57119;52.516;13.508;2023-10-09T04:36:01;9.02;;;2.90;;
69822;SDS011;57119;52.516;13.508;2023-10-09T04:38:45;6.50;;;2.70;;
69822;SDS011;57119;52.516;13.508;2023-10-09T04:41:31;8.27;;;3.37;;
69822;SDS011;57119;52.516;13.508;2023-10-09T04:44:17;7.18;;;3.17;;
69822;SDS011;57119;52.516;13.508;2023-10-09T04:46:49;10.80;;;3.58;;
69822;SDS011;57119;52.516;13.508;2023-10-09T04:49:34;7.35;;;3.55;;
69822;SDS011;57119;52.516;13.508;2023-10-09T04:52:19;6.97;;;3.03;;
69822;SDS011;57119;52.516;13.508;2023-10-09T04:55:05;8.33;;;3.30;;
69822;SDS011;57119;52.516;13.508;2023-10-09T04:57:34;7.43;;;3.78;;
69822;SDS011;57119;52.516;13.508;2023-10-09T05:00:07;7.47;;;3.60;;
69822;SDS011;57119;52.516;13.508;2023-10-09T05:02:51;8.35;;;3.33;;
69822;SDS011;57119;52.516;13.508;2023-10-09T05:05:21;8.13;;;3.58;;
69822;SDS011;57119;52.516;13.508;2023-10-09T05:08:10;9.97;;;3.50;;
69822;SDS011;57119;52.516;13.508;2023-10-09T05:10:51;9.15;;;3.40;;
69822;SDS011;57119;52.516;13.508;2023-10-09T05:13:26;9.27;;;3.50;;
69822;SDS011;57119;52.516;13.508;2023-10-09T05:18:52;8.65;;;3.53;;
69822;SDS011;57119;52.516;13.508;2023-10-09T05:23:56;7.72;;;3.35;;
69822;SDS011;57119;52.516;13.508;2023-10-09T05:26:37;8.70;;;3.30;;
69822;SDS011;57119;52.516;13.508;2023-10-09T05:31:36;7.18;;;2.92;;
69822;SDS011;57119;52.516;13.508;2023-10-09T05:34:21;9.10;;;2.85;;
69822;SDS011;57119;52.516;13.508;2023-10-09T05:36:48;7.17;;;3.17;;
69822;SDS011;57119;52.516;13.508;2023-10-09T05:39:35;9.15;;;3.15;;
69822;SDS011;57119;52.516;13.508;2023-10-09T05:42:07;7.72;;;3.40;;
69822;SDS011;57119;52.516;13.508;2023-10-09T05:44:42;8.13;;;3.50;;
69822;SDS011;57119;52.516;13.508;2023-10-09T05:47:40;6.63;;;3.05;;
69822;SDS011;57119;52.516;13.508;2023-10-09T05:50:18;8.53;;;3.30;;
69822;SDS011;57119;52.516;13.508;2023-10-09T05:52:47;8.50;;;3.55;;
69822;SDS011;57119;52.516;13.508;2023-10-09T05:55:24;7.55;;;3.22;;
69822;SDS011;57119;52.516;13.508;2023-10-09T05:58:09;7.78;;;3.38;;
69822;SDS011;57119;52.516;13.508;2023-10-09T06:00:53;7.25;;;3.20;;
69822;SDS011;57119;52.516;13.508;2023-10-09T06:03:37;9.23;;;3.67;;
69822;SDS011;57119;52.516;13.508;2023-10-09T06:06:29;9.52;;;3.90;;
69822;SDS011;57119;52.516;13.508;2023-10-09T06:09:10;9.07;;;3.63;;
69822;SDS011;57119;52.516;13.508;2023-10-09T06:11:40;7.60;;;3.33;;
69822;SDS011;57119;52.516;13.508;2023-10-09T06:14:15;9.20;;;3.67;;
69822;SDS011;57119;52.516;13.508;2023-10-09T06:17:10;11.17;;;3.97;;
69822;SDS011;57119;52.516;13.508;2023-10-09T06:19:38;7.55;;;2.83;;
69822;SDS011;57119;52.516;13.508;2023-10-09T06:22:10;7.55;;;2.95;;
69822;SDS011;57119;52.516;13.508;2023-10-09T06:24:54;6.90;;;2.45;;
69822;SDS011;57119;52.516;13.508;2023-10-09T06:27:20;7.33;;;2.37;;
69822;SDS011;57119;52.516;13.508;2023-10-09T06:30:09;6.85;;;2.83;;
69822;SDS011;57119;52.516;13.508;2023-10-09T06:32:49;7.18;;;2.60;;
69822;SDS011;57119;52.516;13.508;2023-10-09T06:35:44;7.90;;;3.30;;
69822;SDS011;57119;52.516;13.508;2023-10-09T06:38:18;7.67;;;3.20;;
69822;SDS011;57119;52.516;13.508;2023-10-09T06:40:49;8.40;;;3.13;;
69822;SDS011;57119;52.516;13.508;2023-10-09T06:43:47;7.45;;;3.42;;
69822;SDS011;57119;52.516;13.508;2023-10-09T06:46:18;7.30;;;3.22;;
69822;SDS011;57119;52.516;13.508;2023-10-09T06:48:49;9.23;;;2.78;;
69822;SDS011;57119;52.516;13.508;2023-10-09T06:51:24;7.10;;;2.87;;
69822;SDS011;57119;52.516;13.508;2023-10-09T06:53:53;6.30;;;2.83;;
69822;SDS011;57119;52.516;13.508;2023-10-09T06:56:23;6.60;;;2.95;;
69822;SDS011;57119;52.516;13.508;2023-10-09T06:59:01;6.57;;;2.80;;
69822;SDS011;57119;52.516;13.508;2023-10-09T07:01:46;7.50;;;3.10;;
69822;SDS011;57119;52.516;13.508;2023-10-09T07:04:36;8.68;;;2.78;;
69822;SDS011;57119;52.516;13.508;2023-10-09T07:07:02;9.47;;;3.27;;
69822;SDS011;57119;52.516;13.508;2023-10-09T07:09:34;7.88;;;3.10;;
69822;SDS011;57119;52.516;13.508;2023-10-09T07:12:29;8.80;;;3.22;;
69822;SDS011;57119;52.516;13.508;2023-10-09T07:14:58;11.73;;;3.15;;
69822;SDS011;57119;52.516;13.508;2023-10-09T07:17:38;7.45;;;3.03;;
69822;SDS011;57119;52.516;13.508;2023-10-09T07:20:04;11.40;;;3.20;;
69822;SDS011;57119;52.516;13.508;2023-10-09T07:22:38;7.13;;;2.88;;
69822;SDS011;57119;52.516;13.508;2023-10-09T07:25:05;8.10;;;3.50;;
69822;SDS011;57119;52.516;13.508;2023-10-09T07:27:40;7.07;;;3.22;;
69822;SDS011;57119;52.516;13.508;2023-10-09T07:30:10;8.25;;;3.83;;
69822;SDS011;57119;52.516;13.508;2023-10-09T07:32:58;7.57;;;3.20;;
69822;SDS011;57119;52.516;13.508;2023-10-09T07:35:39;7.63;;;3.60;;
69822;SDS011;57119;52.516;13.508;2023-10-09T07:38:12;7.60;;;3.53;;
69822;SDS011;57119;52.516;13.508;2023-10-09T07:40:39;7.43;;;3.67;;
69822;SDS011;57119;52.516;13.508;2023-10-09T07:43:40;8.20;;;3.63;;
69822;SDS011;57119;52.516;13.508;2023-10-09T07:46:18;7.47;;;3.40;;
69822;SDS011;57119;52.516;13.508;2023-10-09T07:49:03;8.70;;;3.40;;
69822;SDS011;57119;52.516;13.508;2023-10-09T07:51:37;8.20;;;3.13;;
69822;SDS011;57119;52.516;13.508;2023-10-09T07:54:08;7.88;;;3.72;;
69822;SDS011;57119;52.516;13.508;2023-10-09T07:56:34;7.53;;;3.05;;
69822;SDS011;57119;52.516;13.508;2023-10-09T07:59:06;7.80;;;3.27;;
69822;SDS011;57119;52.516;13.508;2023-10-09T08:01:39;8.85;;;3.25;;
69822;SDS011;57119;52.516;13.508;2023-10-09T08:04:17;7.88;;;2.90;;
69822;SDS011;57119;52.516;13.508;2023-10-09T08:06:45;9.48;;;3.60;;
69822;SDS011;57119;52.516;13.508;2023-10-09T08:09:12;9.05;;;3.67;;
69822;SDS011;57119;52.516;13.508;2023-10-09T08:11:38;6.77;;;3.03;;
69822;SDS011;57119;52.516;13.508;2023-10-09T08:14:13;8.43;;;3.42;;
69822;SDS011;57119;52.516;13.508;2023-10-09T08:16:58;7.43;;;2.97;;
69822;SDS011;57119;52.516;13.508;2023-10-09T08:19:50;7.35;;;3.17;;
69822;SDS011;57119;52.516;13.508;2023-10-09T08:22:25;9.37;;;2.87;;
69822;SDS011;57119;52.516;13.508;2023-10-09T08:24:54;7.65;;;2.97;;
69822;SDS011;57119;52.516;13.508;2023-10-09T08:27:27;7.70;;;3.10;;
69822;SDS011;57119;52.516;13.508;2023-10-09T08:29:56;7.32;;;2.78;;
69822;SDS011;57119;52.516;13.508;2023-10-09T08:32:40;8.93;;;2.85;;
69822;SDS011;57119;52.516;13.508;2023-10-09T08:35:08;7.70;;;3.40;;
69822;SDS011;57119;52.516;13.508;2023-10-09T08:37:52;7.53;;;3.40;;
69822;SDS011;57119;52.516;13.508;2023-10-09T08:40:18;8.50;;;2.90;;
69822;SDS011;57119;52.516;13.508;2023-10-09T08:42:52;7.80;;;3.30;;
69822;SDS011;57119;52.516;13.508;2023-10-09T08:45:22;8.65;;;3.30;;
69822;SDS011;57119;52.516;13.508;2023-10-09T08:47:55;7.70;;;3.28;;
69822;SDS011;57119;52.516;13.508;2023-10-09T08:50:22;8.57;;;3.15;;
69822;SDS011;57119;52.516;13.508;2023-10-09T08:52:53;7.83;;;3.30;;
69822;SDS011;57119;52.516;13.508;2023-10-09T08:55:20;9.88;;;4.53;;
69822;SDS011;57119;52.516;13.508;2023-10-09T08:57:45;7.73;;;3.33;;
69822;SDS011;57119;52.516;13.508;2023-10-09T09:00:18;8.57;;;3.45;;
69822;SDS011;57119;52.516;13.508;2023-10-09T09:02:58;7.47;;;3.20;;
69822;SDS011;57119;52.516;13.508;2023-10-09T09:05:25;7.15;;;3.25;;
69822;SDS011;57119;52.516;13.508;2023-10-09T09:07:53;8.48;;;3.67;;
69822;SDS011;57119;52.516;13.508;2023-10-09T09:10:27;8.40;;;3.77;;
69822;SDS011;57119;52.516;13.508;2023-10-09T09:13:01;8.15;;;4.15;;
69822;SDS011;57119;52.516;13.508;2023-10-09T09:15:29;6.63;;;3.03;;
69822;SDS011;57119;52.516;13.508;2023-10-09T09:18:04;8.02;;;3.20;;
69822;SDS011;57119;52.516;13.508;2023-10-09T09:20:32;7.57;;;3.17;;
69822;SDS011;57119;52.516;13.508;2023-10-09T09:23:02;7.83;;;3.00;;
69822;SDS011;57119;52.516;13.508;2023-10-09T09:25:43;6.80;;;3.03;;
69822;SDS011;57119;52.516;13.508;2023-10-09T09:28:16;6.78;;;3.15;;
69822;SDS011;57119;52.516;13.508;2023-10-09T09:30:47;8.25;;;3.10;;
69822;SDS011;57119;52.516;13.508;2023-10-09T09:33:16;9.00;;;3.42;;
69822;SDS011;57119;52.516;13.508;2023-10-09T09:35:58;7.30;;;3.27;;
69822;SDS011;57119;52.516;13.508;2023-10-09T09:38:28;6.97;;;3.35;;
69822;SDS011;57119;52.516;13.508;2023-10-09T09:40:55;7.75;;;3.13;;
69822;SDS011;57119;52.516;13.508;2023-10-09T09:43:22;7.85;;;3.10;;
69822;SDS011;57119;52.516;13.508;2023-10-09T09:45:48;8.15;;;3.22;;
69822;SDS011;57119;52.516;13.508;2023-10-09T09:48:16;9.87;;;3.30;;
69822;SDS011;57119;52.516;13.508;2023-10-09T09:50:44;7.55;;;3.10;;
69822;SDS011;57119;52.516;13.508;2023-10-09T09:53:12;8.43;;;3.17;;
69822;SDS011;57119;52.516;13.508;2023-10-09T09:55:53;6.95;;;2.88;;
69822;SDS011;57119;52.516;13.508;2023-10-09T09:58:23;8.05;;;3.00;;
69822;SDS011;57119;52.516;13.508;2023-10-09T10:00:53;6.93;;;3.20;;
69822;SDS011;57119;52.516;13.508;2023-10-09T10:03:24;7.60;;;3.10;;
69822;SDS011;57119;52.516;13.508;2023-10-09T10:05:50;6.53;;;3.00;;
69822;SDS011;57119;52.516;13.508;2023-10-09T10:08:18;7.72;;;2.67;;
69822;SDS011;57119;52.516;13.508;2023-10-09T10:10:46;6.30;;;2.78;;
69822;SDS011;57119;52.516;13.508;2023-10-09T10:16:09;8.48;;;3.17;;
69822;SDS011;57119;52.516;13.508;2023-10-09T10:19:04;6.10;;;2.67;;
69822;SDS011;57119;52.516;13.508;2023-10-09T10:21:46;8.15;;;2.72;;
69822;SDS011;57119;52.516;13.508;2023-10-09T10:27:16;7.83;;;3.00;;
69822;SDS011;57119;52.516;13.508;2023-10-09T10:35:16;7.80;;;2.97;;
69822;SDS011;57119;52.516;13.508;2023-10-09T10:37:45;8.07;;;2.88;;
69822;SDS011;57119;52.516;13.508;2023-10-09T10:40:26;9.37;;;5.10;;
69822;SDS011;57119;52.516;13.508;2023-10-09T10:43:17;6.63;;;3.33;;
69822;SDS011;57119;52.516;13.508;2023-10-09T10:46:06;8.23;;;3.20;;
69822;SDS011;57119;52.516;13.508;2023-10-09T10:49:01;8.20;;;3.40;;
69822;SDS011;57119;52.516;13.508;2023-10-09T10:51:39;6.45;;;3.00;;
69822;SDS011;57119;52.516;13.508;2023-10-09T10:54:06;7.33;;;3.23;;
69822;SDS011;57119;52.516;13.508;2023-10-09T10:56:51;8.95;;;3.70;;
69822;SDS011;57119;52.516;13.508;2023-10-09T10:59:20;6.27;;;2.43;;
69822;SDS011;57119;52.516;13.508;2023-10-09T11:01:49;8.65;;;3.55;;
69822;SDS011;57119;52.516;13.508;2023-10-09T11:04:24;8.40;;;3.50;;
69822;SDS011;57119;52.516;13.508;2023-10-09T11:06:58;6.75;;;2.75;;
69822;SDS011;57119;52.516;13.508;2023-10-09T11:09:44;7.45;;;3.40;;
69822;SDS011;57119;52.516;13.508;2023-10-09T11:12:41;7.07;;;3.37;;
69822;SDS011;57119;52.516;13.508;2023-10-09T11:15:30;7.72;;;3.15;;
69822;SDS011;57119;52.516;13.508;2023-10-09T11:18:09;8.40;;;3.47;;
69822;SDS011;57119;52.516;13.508;2023-10-09T11:20:44;8.18;;;3.38;;
69822;SDS011;57119;52.516;13.508;2023-10-09T11:23:42;8.15;;;3.38;;
69822;SDS011;57119;52.516;13.508;2023-10-09T11:26:17;7.93;;;3.50;;
69822;SDS011;57119;52.516;13.508;2023-10-09T11:34:48;7.75;;;3.58;;
69822;SDS011;57119;52.516;13.508;2023-10-09T11:37:21;8.43;;;3.13;;
69822;SDS011;57119;52.516;13.508;2023-10-09T11:39:54;7.83;;;3.53;;
69822;SDS011;57119;52.516;13.508;2023-10-09T11:42:20;8.88;;;3.92;;
69822;SDS011;57119;52.516;13.508;2023-10-09T11:45:05;8.73;;;3.78;;
69822;SDS011;57119;52.516;13.508;2023-10-09T11:47:53;8.93;;;4.28;;
69822;SDS011;57119;52.516;13.508;2023-10-09T11:53:19;8.33;;;3.90;;
69822;SDS011;57119;52.516;13.508;2023-10-09T11:55:51;8.23;;;3.85;;
69822;SDS011;57119;52.516;13.508;2023-10-09T11:58:20;9.88;;;4.05;;
69822;SDS011;57119;52.516;13.508;2023-10-09T12:00:55;8.38;;;4.60;;
69822;SDS011;57119;52.516;13.508;2023-10-09T12:03:27;8.70;;;4.93;;
69822;SDS011;57119;52.516;13.508;2023-10-09T12:05:57;9.20;;;4.83;;
69822;SDS011;57119;52.516;13.508;2023-10-09T12:08:29;8.88;;;5.30;;
69822;SDS011;57119;52.516;13.508;2023-10-09T12:10:55;8.38;;;4.90;;
69822;SDS011;57119;52.516;13.508;2023-10-09T12:13:22;7.18;;;4.22;;
69822;SDS011;57119;52.516;13.508;2023-10-09T12:15:48;9.80;;;4.93;;
69822;SDS011;57119;52.516;13.508;2023-10-09T12:18:20;9.73;;;4.88;;
69822;SDS011;57119;52.516;13.508;2023-10-09T12:20:47;9.30;;;4.97;;
69822;SDS011;57119;52.516;13.508;2023-10-09T12:23:27;10.07;;;4.43;;
69822;SDS011;57119;52.516;13.508;2023-10-09T12:25:53;8.60;;;5.07;;
69822;SDS011;57119;52.516;13.508;2023-10-09T12:28:21;8.68;;;4.70;;
69822;SDS011;57119;52.516;13.508;2023-10-09T12:30:48;9.48;;;4.68;;
69822;SDS011;57119;52.516;13.508;2023-10-09T12:33:17;8.68;;;4.70;;
69822;SDS011;57119;52.516;13.508;2023-10-09T12:35:44;8.90;;;4.27;;
69822;SDS011;57119;52.516;13.508;2023-10-09T12:38:13;8.18;;;4.85;;
69822;SDS011;57119;52.516;13.508;2023-10-09T12:40:43;9.48;;;5.05;;
69822;SDS011;57119;52.516;13.508;2023-10-09T12:43:15;9.32;;;4.85;;
69822;SDS011;57119;52.516;13.508;2023-10-09T12:45:44;9.57;;;5.75;;
69822;SDS011;57119;52.516;13.508;2023-10-09T12:48:10;10.63;;;5.20;;
69822;SDS011;57119;52.516;13.508;2023-10-09T12:50:36;10.33;;;5.33;;
69822;SDS011;57119;52.516;13.508;2023-10-09T12:53:07;10.45;;;5.13;;
69822;SDS011;57119;52.516;13.508;2023-10-09T12:55:36;9.60;;;5.55;;
69822;SDS011;57119;52.516;13.508;2023-10-09T12:58:05;10.68;;;6.22;;
69822;SDS011;57119;52.516;13.508;2023-10-09T13:00:35;11.50;;;5.60;;
69822;SDS011;57119;52.516;13.508;2023-10-09T13:03:14;10.52;;;5.57;;
69822;SDS011;57119;52.516;13.508;2023-10-09T13:08:27;10.13;;;5.35;;
69822;SDS011;57119;52.516;13.508;2023-10-09T13:10:57;12.60;;;6.07;;
69822;SDS011;57119;52.516;13.508;2023-10-09T13:13:29;9.60;;;5.53;;
69822;SDS011;57119;52.516;13.508;2023-10-09T13:16:14;9.25;;;5.45;;
69822;SDS011;57119;52.516;13.508;2023-10-09T13:18:53;10.45;;;5.97;;
69822;SDS011;57119;52.516;13.508;2023-10-09T13:21:27;10.73;;;6.00;;
69822;SDS011;57119;52.516;13.508;2023-10-09T13:23:59;9.77;;;5.97;;
69822;SDS011;57119;52.516;13.508;2023-10-09T13:26:28;11.20;;;5.90;;
69822;SDS011;57119;52.516;13.508;2023-10-09T13:29:00;9.90;;;6.00;;
69822;SDS011;57119;52.516;13.508;2023-10-09T13:31:26;11.07;;;5.75;;
69822;SDS011;57119;52.516;13.508;2023-10-09T13:33:55;8.88;;;5.13;;
69822;SDS011;57119;52.516;13.508;2023-10-09T13:36:21;9.00;;;5.00;;
69822;SDS011;57119;52.516;13.508;2023-10-09T13:38:57;10.30;;;5.90;;
69822;SDS011;57119;52.516;13.508;2023-10-09T13:41:22;10.70;;;5.72;;
69822;SDS011;57119;52.516;13.508;2023-10-09T13:43:53;10.90;;;5.80;;
69822;SDS011;57119;52.516;13.508;2023-10-09T13:46:19;9.23;;;5.80;;
69822;SDS011;57119;52.516;13.508;2023-10-09T13:48:44;10.00;;;6.15;;
69822;SDS011;57119;52.516;13.508;2023-10-09T13:51:10;10.40;;;6.30;;
69822;SDS011;57119;52.516;13.508;2023-10-09T13:53:42;12.68;;;6.20;;
69822;SDS011;57119;52.516;13.508;2023-10-09T13:56:12;9.52;;;5.50;;
69822;SDS011;57119;52.516;13.508;2023-10-09T13:58:48;10.23;;;5.70;;
69822;SDS011;57119;52.516;13.508;2023-10-09T14:01:20;9.45;;;4.95;;
69822;SDS011;57119;52.516;13.508;2023-10-09T14:03:58;9.48;;;5.70;;
69822;SDS011;57119;52.516;13.508;2023-10-09T14:06:25;10.25;;;5.82;;
69822;SDS011;57119;52.516;13.508;2023-10-09T14:09:03;9.85;;;5.65;;
69822;SDS011;57119;52.516;13.508;2023-10-09T14:11:33;10.43;;;5.90;;
69822;SDS011;57119;52.516;13.508;2023-10-09T14:14:02;9.73;;;5.85;;
69822;SDS011;57119;52.516;13.508;2023-10-09T14:16:28;9.70;;;5.43;;
69822;SDS011;57119;52.516;13.508;2023-10-09T14:18:55;10.27;;;5.70;;
69822;SDS011;57119;52.516;13.508;2023-10-09T14:21:32;9.55;;;5.32;;
69822;SDS011;57119;52.516;13.508;2023-10-09T14:24:03;10.43;;;5.00;;
69822;SDS011;57119;52.516;13.508;2023-10-09T14:26:29;11.18;;;5.43;;
69822;SDS011;57119;52.516;13.508;2023-10-09T14:28:55;10.60;;;5.20;;
69822;SDS011;57119;52.516;13.508;2023-10-09T14:31:24;10.37;;;5.77;;
69822;SDS011;57119;52.516;13.508;2023-10-09T14:33:54;9.27;;;5.35;;
69822;SDS011;57119;52.516;13.508;2023-10-09T14:36:22;10.02;;;5.28;;
69822;SDS011;57119;52.516;13.508;2023-10-09T14:38:50;9.93;;;5.47;;
69822;SDS011;57119;52.516;13.508;2023-10-09T14:41:19;10.68;;;5.93;;
69822;SDS011;57119;52.516;13.508;2023-10-09T14:43:48;9.43;;;5.87;;
69822;SDS011;57119;52.516;13.508;2023-10-09T14:46:14;9.68;;;5.68;;
69822;SDS011;57119;52.516;13.508;2023-10-09T14:48:39;11.37;;;5.57;;
69822;SDS011;57119;52.516;13.508;2023-10-09T14:51:06;9.82;;;4.57;;
69822;SDS011;57119;52.516;13.508;2023-10-09T14:53:35;9.95;;;5.57;;
69822;SDS011;57119;52.516;13.508;2023-10-09T14:56:00;9.88;;;5.05;;
69822;SDS011;57119;52.516;13.508;2023-10-09T14:58:26;10.57;;;5.10;;
69822;SDS011;57119;52.516;13.508;2023-10-09T15:00:54;10.73;;;5.72;;
69822;SDS011;57119;52.516;13.508;2023-10-09T15:03:19;10.20;;;5.18;;
69822;SDS011;57119;52.516;13.508;2023-10-09T15:05:47;9.33;;;5.37;;
69822;SDS011;57119;52.516;13.508;2023-10-09T15:08:13;12.05;;;5.60;;
69822;SDS011;57119;52.516;13.508;2023-10-09T15:10:49;10.90;;;6.10;;
69822;SDS011;57119;52.516;13.508;2023-10-09T15:13:17;9.90;;;6.20;;
69822;SDS011;57119;52.516;13.508;2023-10-09T15:15:43;9.38;;;5.50;;
69822;SDS011;57119;52.516;13.508;2023-10-09T15:18:10;11.02;;;5.70;;
69822;SDS011;57119;52.516;13.508;2023-10-09T15:20:39;11.60;;;6.40;;
69822;SDS011;57119;52.516;13.508;2023-10-09T15:23:05;10.80;;;5.97;;
69822;SDS011;57119;52.516;13.508;2023-10-09T15:25:31;11.30;;;6.37;;
69822;SDS011;57119;52.516;13.508;2023-10-09T15:28:03;11.20;;;6.35;;
69822;SDS011;57119;52.516;13.508;2023-10-09T15:30:29;12.32;;;6.78;;
69822;SDS011;57119;52.516;13.508;2023-10-09T15:32:56;10.60;;;6.13;;
69822;SDS011;57119;52.516;13.508;2023-10-09T15:35:22;11.13;;;6.47;;
69822;SDS011;57119;52.516;13.508;2023-10-09T15:37:48;10.00;;;6.17;;
69822;SDS011;57119;52.516;13.508;2023-10-09T15:40:17;10.55;;;6.07;;